Time;durP1;ratioP1;P1;durP2;ratioP2;P2;SDS_P1;SDS_P2;PMS_P1;PMS_P2;Temp;Humidity;BMP_temperature;BMP_pressure;BME280_temperature;BME280_humidity;BME280_pressure;Samples;Min_cycle;Max_cycle;Signal;HPM_P1;HPM_P2
2023/05/10 00:00:43;;;;;;;3.83;1.45;;;;;;;14.78;74.30;100908.44;5113434;28;20060;-80
2023/05/10 00:03:10;;;;;;;0.10;0.10;;;;;;;14.78;74.10;100915.53;5101678;28;20138;-80
2023/05/10 00:05:36;;;;;;;0.10;0.10;;;;;;;14.77;74.15;100912.00;5093566;28;20047;-79
2023/05/10 00:08:02;;;;;;;0.13;0.13;;;;;;;14.77;74.19;100914.69;5097197;28;20024;-79
2023/05/10 00:10:28;;;;;;;0.85;0.85;;;;;;;14.78;74.33;100913.75;5098582;28;20048;-78
2023/05/10 00:12:54;;;;;;;0.55;0.55;;;;;;;14.78;74.24;100910.19;5106873;28;20573;-77
2023/05/10 00:15:20;;;;;;;0.17;0.17;;;;;;;14.78;74.56;100916.44;5096245;28;20389;-78
2023/05/10 00:17:46;;;;;;;0.10;0.10;;;;;;;14.79;74.21;100912.84;5090032;28;20097;-78
2023/05/10 00:20:12;;;;;;;0.10;0.10;;;;;;;14.83;74.45;100909.13;5100295;28;20024;-79
2023/05/10 00:22:39;;;;;;;0.10;0.10;;;;;;;14.85;74.79;100912.63;5099793;28;20035;-78
2023/05/10 00:25:06;;;;;;;0.10;0.10;;;;;;;14.86;74.59;100911.66;5095315;28;20505;-78
2023/05/10 00:27:32;;;;;;;0.10;0.10;;;;;;;14.85;74.56;100912.63;5105700;28;20048;-79
2023/05/10 00:29:58;;;;;;;0.20;0.20;;;;;;;14.74;74.79;100914.78;5097109;28;20025;-77
2023/05/10 00:32:24;;;;;;;1.00;1.00;;;;;;;14.70;75.27;100913.16;5093231;28;20028;-79
2023/05/10 00:34:50;;;;;;;0.20;0.20;;;;;;;14.71;75.26;100914.91;5097523;28;20121;-79
2023/05/10 00:37:16;;;;;;;0.15;0.15;;;;;;;14.70;75.39;100913.16;5095608;28;20029;-79
2023/05/10 00:39:42;;;;;;;0.10;0.10;;;;;;;14.70;75.52;100915.81;5099037;28;20063;-77
2023/05/10 00:42:08;;;;;;;0.40;0.40;;;;;;;14.71;75.62;100915.75;5095585;28;20047;-77
2023/05/10 00:44:35;;;;;;;0.68;0.68;;;;;;;14.72;75.48;100916.66;5094540;28;20028;-78
2023/05/10 00:47:01;;;;;;;0.10;0.10;;;;;;;14.69;75.51;100914.06;5106985;28;20028;-78
2023/05/10 00:49:28;;;;;;;3.20;0.63;;;;;;;14.68;75.44;100915.03;5101558;28;20045;-79
2023/05/10 00:51:55;;;;;;;2.10;0.30;;;;;;;14.67;75.40;100913.28;5099039;28;20099;-78
2023/05/10 00:54:21;;;;;;;2.55;0.75;;;;;;;14.65;75.51;100909.78;5109447;28;20059;-79
2023/05/10 00:56:49;;;;;;;0.10;0.10;;;;;;;14.63;75.53;100915.16;5102476;28;20508;-79
2023/05/10 00:59:17;;;;;;;0.10;0.10;;;;;;;14.62;75.51;100915.22;5101965;28;20036;-79
2023/05/10 01:01:45;;;;;;;0.25;0.25;;;;;;;14.62;75.40;100915.22;5099013;28;20036;-80
2023/05/10 01:04:13;;;;;;;1.13;1.02;;;;;;;14.61;75.45;100902.81;5097620;28;20104;-79
2023/05/10 01:06:41;;;;;;;0.10;0.10;;;;;;;14.61;75.49;100913.47;5097034;28;20035;-79
2023/05/10 01:09:07;;;;;;;0.20;0.20;;;;;;;14.61;75.66;100913.47;5094829;28;20058;-78
2023/05/10 01:11:36;;;;;;;0.52;0.52;;;;;;;14.61;75.60;100906.31;5086858;28;20025;-79
2023/05/10 01:14:03;;;;;;;0.10;0.10;;;;;;;14.61;75.77;100908.13;5097148;28;20469;-79
2023/05/10 01:16:36;;;;;;;0.10;0.10;;;;;;;14.62;75.79;100916.06;5082462;28;20028;-78
2023/05/10 01:19:05;;;;;;;0.45;0.45;;;;;;;14.63;75.63;100911.59;5085171;28;20094;-80
2023/05/10 01:21:58;;;;;;;0.47;0.47;;;;;;;14.73;75.68;100923.72;5088574;28;20035;-78
2023/05/10 01:27:30;;;;;;;0.50;0.47;;;;;;;14.70;75.49;100915.81;5085163;27;20484;-79
2023/05/10 01:30:15;;;;;;;0.47;0.47;;;;;;;14.72;75.54;100921.97;5075526;28;20108;-80
2023/05/10 01:35:54;;;;;;;0.30;0.30;;;;;;;14.74;75.28;100936.13;5111312;27;1186062;-80
2023/05/10 01:44:05;;;;;;;0.80;0.80;;;;;;;14.61;75.65;100942.81;5065948;28;20161;-79
2023/05/10 01:46:37;;;;;;;1.58;1.48;;;;;;;14.62;75.79;100939.22;5041393;28;20080;-81
2023/05/10 01:49:09;;;;;;;0.63;0.63;;;;;;;14.61;75.88;100945.47;5039035;28;20040;-79
2023/05/10 01:51:42;;;;;;;0.20;0.20;;;;;;;14.61;75.92;100949.00;5041567;28;20021;-81
2023/05/10 01:54:11;;;;;;;0.20;0.20;;;;;;;14.60;75.80;100946.38;5039185;28;20029;-80
2023/05/10 01:56:40;;;;;;;0.20;0.20;;;;;;;14.61;75.74;100950.81;5042069;28;20068;-79
2023/05/10 01:59:11;;;;;;;0.35;0.35;;;;;;;14.61;75.89;100950.81;5042472;28;20036;-79
2023/05/10 02:01:38;;;;;;;0.30;0.30;;;;;;;14.59;75.93;100952.63;5042637;28;20041;-80
2023/05/10 02:04:08;;;;;;;0.10;0.10;;;;;;;14.61;76.06;100954.31;5044853;28;20406;-79
2023/05/10 02:06:38;;;;;;;0.85;0.80;;;;;;;14.61;76.06;100951.66;5049772;28;20394;-80
2023/05/10 02:09:05;;;;;;;0.50;0.50;;;;;;;14.61;75.94;100950.81;5040407;28;20033;-80
2023/05/10 02:11:32;;;;;;;0.85;0.65;;;;;;;14.62;76.17;100947.22;5041028;28;20029;-80
2023/05/10 02:14:00;;;;;;;0.47;0.47;;;;;;;14.65;75.96;100963.13;5037931;28;20042;-79
2023/05/10 02:16:30;;;;;;;3.63;1.52;;;;;;;14.67;76.15;100955.94;5035193;28;20057;-79
2023/05/10 02:18:58;;;;;;;1.08;1.08;;;;;;;14.67;76.12;100961.28;5041017;28;20387;-78
2023/05/10 02:21:26;;;;;;;0.10;0.10;;;;;;;14.68;76.13;100963.03;5044767;28;20026;-80
2023/05/10 02:23:53;;;;;;;1.48;1.45;;;;;;;14.67;76.23;100971.94;5038709;28;20115;-79
2023/05/10 02:26:22;;;;;;;1.25;1.15;;;;;;;14.71;76.03;100970.91;5038206;28;20033;-79
2023/05/10 02:28:50;;;;;;;0.20;0.20;;;;;;;14.68;76.17;100968.38;5041123;28;20025;-78
2023/05/10 02:31:18;;;;;;;1.25;1.00;;;;;;;14.71;76.05;100970.91;5044631;28;20079;-80
2023/05/10 02:33:45;;;;;;;0.20;0.20;;;;;;;14.70;76.13;100971.81;5045790;28;20029;-79
2023/05/10 02:36:13;;;;;;;1.85;1.10;;;;;;;14.79;75.90;100967.97;5051851;28;20149;-81
2023/05/10 02:38:40;;;;;;;0.10;0.10;;;;;;;14.87;75.76;100974.75;5042870;28;20083;-80
2023/05/10 02:41:10;;;;;;;6.45;1.00;;;;;;;14.91;75.69;100966.66;5036213;28;20113;-79
2023/05/10 02:43:37;;;;;;;1.90;1.80;;;;;;;14.92;75.42;100968.41;5044484;28;20075;-80
2023/05/10 02:46:04;;;;;;;0.10;0.10;;;;;;;14.95;75.68;100969.16;5045111;28;20045;-80
2023/05/10 02:48:30;;;;;;;0.25;0.25;;;;;;;14.99;75.61;100969.91;5039364;28;20056;-80
2023/05/10 02:51:03;;;;;;;0.10;0.10;;;;;;;15.03;75.56;100971.56;5049345;28;20041;-80
2023/05/10 02:53:33;;;;;;;0.10;0.10;;;;;;;15.08;75.69;100972.25;5033699;28;20120;-80
2023/05/10 02:56:06;;;;;;;0.20;0.20;;;;;;;15.10;75.51;100969.53;5027651;28;20100;-80
2023/05/10 02:58:33;;;;;;;0.10;0.10;;;;;;;15.11;75.55;100972.13;5032769;28;20068;-81
2023/05/10 03:01:00;;;;;;;0.10;0.10;;;;;;;15.13;75.47;100972.94;5031346;28;20036;-79
2023/05/10 03:03:26;;;;;;;0.60;0.60;;;;;;;15.11;75.18;100972.13;5032250;28;20026;-81
2023/05/10 03:05:55;;;;;;;0.50;0.50;;;;;;;15.02;75.48;100976.00;5043663;28;20037;-80
2023/05/10 03:08:23;;;;;;;1.92;1.45;;;;;;;15.10;75.22;100969.53;5035902;28;20026;-80
2023/05/10 03:11:09;;;;;;;0.20;0.20;;;;;;;15.14;75.36;100977.38;5029684;28;20041;-80
2023/05/10 03:16:41;;;;;;;0.70;0.70;;;;;;;15.02;76.34;100968.00;5109968;27;1186311;-80
2023/05/10 03:19:21;;;;;;;0.77;0.77;;;;;;;15.04;76.17;100971.50;5134243;27;20061;-80
2023/05/10 03:21:51;;;;;;;0.40;0.40;;;;;;;15.04;75.94;100960.81;5132543;27;20497;-80
2023/05/10 03:24:21;;;;;;;0.32;0.32;;;;;;;15.05;76.14;100964.34;5116058;28;20047;-79
2023/05/10 03:26:48;;;;;;;0.20;0.20;;;;;;;15.05;76.08;100972.34;5106393;28;20036;-78
2023/05/10 03:29:15;;;;;;;0.22;0.22;;;;;;;15.06;75.98;100976.78;5110630;28;20031;-80
2023/05/10 03:31:42;;;;;;;0.17;0.17;;;;;;;15.02;75.99;100984.00;5113584;28;20027;-80
2023/05/10 03:34:08;;;;;;;0.75;0.75;;;;;;;15.02;75.90;100976.00;5111292;28;20031;-81
2023/05/10 03:36:34;;;;;;;0.55;0.55;;;;;;;15.01;75.83;100976.94;5113296;28;20040;-80
2023/05/10 03:39:00;;;;;;;0.47;0.47;;;;;;;15.01;75.95;100970.72;5113686;28;20392;-80
2023/05/10 03:41:26;;;;;;;3.15;1.27;;;;;;;14.99;76.03;100968.13;5109968;28;20024;-80
2023/05/10 03:43:52;;;;;;;0.32;0.32;;;;;;;15.01;76.05;100976.06;5109574;28;20021;-80
2023/05/10 03:46:18;;;;;;;0.60;0.60;;;;;;;15.01;76.05;100979.59;5107354;28;20030;-80
2023/05/10 03:48:44;;;;;;;0.10;0.10;;;;;;;15.03;76.20;100982.22;5109946;28;20032;-80
2023/05/10 03:51:10;;;;;;;4.47;0.85;;;;;;;15.02;76.13;100981.34;5113504;28;20032;-79
2023/05/10 03:53:36;;;;;;;0.70;0.70;;;;;;;15.01;76.16;100981.41;5120844;28;20027;-80
2023/05/10 03:56:03;;;;;;;0.28;0.28;;;;;;;15.00;75.77;100983.22;5113346;28;20046;-79
2023/05/10 03:58:29;;;;;;;0.20;0.20;;;;;;;15.01;76.11;100989.41;5118484;28;20063;-79
2023/05/10 04:00:55;;;;;;;0.30;0.30;;;;;;;14.98;75.98;100984.19;5113647;28;20043;-79
2023/05/10 04:03:21;;;;;;;0.10;0.10;;;;;;;14.99;76.05;100994.81;5113113;28;20080;-80
2023/05/10 04:05:47;;;;;;;0.25;0.25;;;;;;;14.99;76.11;100991.25;5121837;28;20028;-80
2023/05/10 04:08:14;;;;;;;0.20;0.20;;;;;;;15.00;75.82;100995.66;5115958;28;20062;-80
2023/05/10 04:10:40;;;;;;;4.72;0.93;;;;;;;14.98;75.86;100993.06;5110293;28;20028;-80
2023/05/10 04:13:06;;;;;;;0.10;0.10;;;;;;;14.98;75.99;100997.53;5109726;28;20050;-79
2023/05/10 04:15:32;;;;;;;0.10;0.10;;;;;;;14.95;75.97;100994.97;5110362;28;20108;-80
2023/05/10 04:17:59;;;;;;;0.30;0.30;;;;;;;14.96;75.81;100989.56;5116162;28;20248;-80
2023/05/10 04:20:25;;;;;;;0.35;0.35;;;;;;;14.95;76.11;100981.63;5109413;28;20043;-79
2023/05/10 04:22:51;;;;;;;0.30;0.30;;;;;;;14.95;75.97;100984.28;5113441;28;20035;-80
2023/05/10 04:25:17;;;;;;;0.75;0.75;;;;;;;14.98;75.87;100981.53;5111720;28;20016;-80
2023/05/10 04:27:43;;;;;;;0.20;0.20;;;;;;;15.08;75.49;100988.28;5106781;28;20036;-80
2023/05/10 04:30:10;;;;;;;1.08;0.60;;;;;;;15.10;75.27;100997.06;5097221;28;20032;-79
2023/05/10 04:32:36;;;;;;;0.47;0.47;;;;;;;15.11;75.32;100988.13;5097955;28;20024;-78
2023/05/10 04:35:04;;;;;;;0.60;0.60;;;;;;;15.10;75.09;100991.72;5097566;28;20048;-79
2023/05/10 04:37:30;;;;;;;0.90;0.90;;;;;;;15.08;75.11;101004.28;5093016;28;20045;-80
2023/05/10 04:39:56;;;;;;;0.10;0.10;;;;;;;15.07;75.26;101007.88;5099779;28;20032;-79
2023/05/10 04:42:22;;;;;;;0.73;0.73;;;;;;;15.04;75.08;101013.28;5100146;28;20099;-79
2023/05/10 04:44:48;;;;;;;1.40;1.25;;;;;;;15.04;75.16;101007.97;5100601;28;20028;-79
2023/05/10 04:47:16;;;;;;;0.30;0.30;;;;;;;15.02;75.17;101004.50;5103362;28;20059;-78
2023/05/10 04:49:42;;;;;;;1.88;1.15;;;;;;;15.01;75.18;101016.09;5099840;28;20023;-80
2023/05/10 04:52:08;;;;;;;1.48;1.38;;;;;;;14.99;74.98;101012.59;5102592;28;20039;-79
2023/05/10 04:54:34;;;;;;;0.20;0.20;;;;;;;14.98;75.15;101018.88;5104553;28;20028;-80
2023/05/10 04:57:00;;;;;;;0.45;0.45;;;;;;;14.99;75.09;101021.50;5102429;28;20032;-78
2023/05/10 04:59:26;;;;;;;2.33;0.95;;;;;;;15.00;75.19;101022.34;5102678;28;20039;-79
2023/05/10 05:01:52;;;;;;;0.25;0.25;;;;;;;15.01;75.05;101024.97;5103154;28;20089;-80
2023/05/10 05:04:18;;;;;;;0.60;0.60;;;;;;;15.04;75.10;101031.97;5095095;28;20028;-79
2023/05/10 05:06:44;;;;;;;0.30;0.30;;;;;;;15.03;75.34;101032.94;5091744;28;20028;-79
2023/05/10 05:09:11;;;;;;;0.82;0.68;;;;;;;15.03;75.14;101032.94;5098599;28;20088;-80
2023/05/10 05:11:37;;;;;;;0.10;0.10;;;;;;;15.00;75.05;101038.34;5091721;28;20472;-79
2023/05/10 05:14:03;;;;;;;0.63;0.63;;;;;;;14.98;74.85;101030.41;5089492;28;20048;-79
2023/05/10 05:16:31;;;;;;;0.40;0.40;;;;;;;14.93;74.99;101036.81;5097013;28;20033;-79
2023/05/10 05:18:57;;;;;;;0.10;0.10;;;;;;;14.90;75.00;101048.47;5101105;28;20038;-79
2023/05/10 05:21:24;;;;;;;1.55;0.75;;;;;;;14.88;75.00;101045.88;5106853;28;20035;-80
2023/05/10 05:23:51;;;;;;;0.82;0.32;;;;;;;14.90;75.16;101047.63;5109461;28;20077;-80
2023/05/10 05:26:17;;;;;;;0.20;0.20;;;;;;;14.86;75.06;101053.03;5106374;28;20024;-78
2023/05/10 05:28:43;;;;;;;0.20;0.20;;;;;;;14.92;75.20;101056.47;5111419;28;20047;-80
2023/05/10 05:31:09;;;;;;;1.00;1.00;;;;;;;14.93;75.24;101063.50;5102770;28;20214;-79
2023/05/10 05:33:35;;;;;;;0.30;0.30;;;;;;;14.99;75.22;101061.50;5100935;28;20115;-79
2023/05/10 05:36:03;;;;;;;0.10;0.10;;;;;;;14.94;75.59;101067.91;5097222;28;20032;-79
2023/05/10 05:38:30;;;;;;;0.10;0.10;;;;;;;14.96;75.76;101064.28;5096865;28;20061;-80
2023/05/10 05:40:56;;;;;;;0.10;0.10;;;;;;;14.97;75.61;101071.34;5095471;28;20530;-80
2023/05/10 05:43:22;;;;;;;0.17;0.17;;;;;;;14.95;75.50;101067.00;5099571;28;20031;-79
2023/05/10 05:45:48;;;;;;;0.10;0.10;;;;;;;14.88;75.42;101071.69;5096841;28;20056;-78
2023/05/10 05:48:14;;;;;;;0.10;0.10;;;;;;;14.90;75.53;101079.63;5087455;28;20107;-79
2023/05/10 05:50:40;;;;;;;0.10;0.10;;;;;;;14.87;75.76;101075.28;5093697;28;20034;-81
2023/05/10 05:53:08;;;;;;;0.47;0.47;;;;;;;14.87;75.47;101073.47;5089239;28;20032;-79
2023/05/10 05:55:34;;;;;;;0.32;0.32;;;;;;;14.87;75.78;101075.28;5094806;28;20028;-78
2023/05/10 05:58:00;;;;;;;0.10;0.10;;;;;;;14.89;75.55;101084.06;5093413;28;20035;-79
2023/05/10 06:00:26;;;;;;;1.00;0.85;;;;;;;14.98;75.12;101077.59;5093680;28;20031;-79
2023/05/10 06:02:52;;;;;;;0.30;0.30;;;;;;;15.00;75.02;101081.06;5093746;28;20496;-79
2023/05/10 06:05:20;;;;;;;0.10;0.10;;;;;;;15.01;74.98;101083.66;5093612;28;20442;-81
2023/05/10 06:07:46;;;;;;;0.10;0.10;;;;;;;15.03;75.05;101081.81;5095391;28;20024;-80
2023/05/10 06:10:12;;;;;;;0.10;0.10;;;;;;;15.03;74.95;101089.81;5090234;28;20043;-80
2023/05/10 06:12:38;;;;;;;0.10;0.10;;;;;;;15.06;75.07;101090.66;5091632;28;20554;-79
2023/05/10 06:15:05;;;;;;;0.10;0.10;;;;;;;15.03;74.84;101091.63;5099031;28;20565;-81
2023/05/10 06:17:31;;;;;;;1.13;1.02;;;;;;;15.09;74.74;101091.44;5099617;28;20040;-81
2023/05/10 06:19:57;;;;;;;0.30;0.30;;;;;;;15.16;74.92;101092.94;5097766;28;20026;-80
2023/05/10 06:22:23;;;;;;;0.55;0.55;;;;;;;15.27;74.97;101084.53;5096276;28;20450;-81
2023/05/10 06:24:49;;;;;;;0.65;0.65;;;;;;;15.38;74.90;101086.84;5093894;28;20023;-81
2023/05/10 06:27:16;;;;;;;0.10;0.10;;;;;;;15.47;74.81;101082.97;5094946;28;20032;-80
2023/05/10 06:29:42;;;;;;;0.82;0.70;;;;;;;15.49;75.01;101092.66;5099072;28;20024;-81
2023/05/10 06:32:08;;;;;;;0.32;0.32;;;;;;;15.48;74.75;101104.25;5096080;28;20019;-81
2023/05/10 06:34:34;;;;;;;0.93;0.93;;;;;;;15.45;74.36;101098.16;5096077;28;20067;-80
2023/05/10 06:37:00;;;;;;;0.17;0.17;;;;;;;15.46;74.37;101102.56;5097463;28;20603;-81
2023/05/10 06:39:26;;;;;;;0.10;0.10;;;;;;;15.50;74.59;101106.88;5095695;28;20073;-80
2023/05/10 06:41:52;;;;;;;0.57;0.57;;;;;;;15.60;74.71;101102.06;5098846;28;20028;-79
2023/05/10 06:44:18;;;;;;;0.10;0.10;;;;;;;15.71;74.52;101093.66;5099013;28;20028;-80
2023/05/10 06:46:44;;;;;;;0.10;0.10;;;;;;;15.80;74.43;101099.53;5099408;28;20047;-79
2023/05/10 06:49:10;;;;;;;0.68;0.68;;;;;;;15.88;74.58;101101.09;5103532;28;20335;-79
2023/05/10 06:51:36;;;;;;;0.25;0.25;;;;;;;15.93;74.45;101107.13;5106204;28;20532;-79
2023/05/10 06:54:03;;;;;;;0.17;0.17;;;;;;;15.99;74.54;101112.22;5099773;28;20436;-81
2023/05/10 06:56:29;;;;;;;0.35;0.35;;;;;;;16.04;74.05;101112.91;5102503;28;20028;-80
2023/05/10 06:58:55;;;;;;;0.10;0.10;;;;;;;16.08;74.12;101109.19;5105476;28;20119;-81
2023/05/10 07:01:21;;;;;;;0.20;0.20;;;;;;;16.15;73.79;101108.03;5103619;28;20084;-81
2023/05/10 07:03:47;;;;;;;0.10;0.10;;;;;;;16.20;73.90;101102.50;5108987;28;20031;-82
2023/05/10 07:06:13;;;;;;;0.30;0.30;;;;;;;16.30;73.83;101113.72;5104293;28;20136;-81
2023/05/10 07:08:39;;;;;;;0.13;0.13;;;;;;;16.40;73.97;101109.72;5102972;28;20043;-81
2023/05/10 07:11:07;;;;;;;0.10;0.10;;;;;;;16.48;74.05;101110.28;5106841;28;20036;-81
2023/05/10 07:13:34;;;;;;;0.10;0.10;;;;;;;16.58;73.75;101123.28;5104862;28;20043;-81
2023/05/10 07:16:01;;;;;;;0.10;0.10;;;;;;;16.62;73.13;101124.88;5114992;28;20028;-80
2023/05/10 07:18:28;;;;;;;2.83;0.63;;;;;;;16.64;73.46;101123.03;5100819;28;20053;-79
2023/05/10 07:20:54;;;;;;;0.10;0.10;;;;;;;16.65;72.95;101131.00;5106256;28;20024;-81
2023/05/10 07:23:21;;;;;;;0.10;0.10;;;;;;;16.65;72.79;101130.13;5098212;28;20765;-82
2023/05/10 07:25:48;;;;;;;0.15;0.15;;;;;;;16.66;72.50;101126.53;5089276;28;20239;-81
2023/05/10 07:28:16;;;;;;;0.52;0.52;;;;;;;16.67;72.82;101133.59;5098050;28;20046;-82
2023/05/10 07:30:42;;;;;;;0.13;0.13;;;;;;;16.66;72.96;101137.22;5101451;28;20024;-80
2023/05/10 07:33:10;;;;;;;0.30;0.30;;;;;;;16.64;73.36;101134.59;5101285;28;20031;-81
2023/05/10 07:35:36;;;;;;;0.10;0.10;;;;;;;16.61;72.72;101134.72;5104434;28;20032;-81
2023/05/10 07:38:02;;;;;;;0.57;0.57;;;;;;;16.60;72.47;101143.69;5100140;28;20070;-78
2023/05/10 07:40:29;;;;;;;0.10;0.10;;;;;;;16.58;72.80;101144.69;5104975;28;20106;-78
2023/05/10 07:42:55;;;;;;;0.10;0.10;;;;;;;16.54;72.22;101143.06;5113189;28;20016;-79
2023/05/10 07:45:22;;;;;;;0.10;0.10;;;;;;;16.52;72.19;101142.25;5102855;28;20021;-77
2023/05/10 07:47:49;;;;;;;0.10;0.10;;;;;;;16.50;72.32;101143.19;5101166;28;20052;-78
2023/05/10 07:50:15;;;;;;;0.10;0.10;;;;;;;16.48;72.51;101139.69;5106172;28;20036;-78
2023/05/10 07:52:41;;;;;;;0.20;0.20;;;;;;;16.44;72.67;101138.06;5111540;28;20032;-78
2023/05/10 07:55:08;;;;;;;0.10;0.10;;;;;;;16.41;72.80;101135.53;5112878;28;20032;-77
2023/05/10 07:57:35;;;;;;;0.25;0.25;;;;;;;16.41;72.83;101140.88;5101804;28;20029;-77
2023/05/10 08:00:02;;;;;;;0.10;0.10;;;;;;;16.39;72.67;101140.06;5094362;28;20037;-77
2023/05/10 08:02:28;;;;;;;0.13;0.13;;;;;;;16.39;72.56;101141.88;5098798;28;20044;-78
2023/05/10 08:04:55;;;;;;;0.10;0.10;;;;;;;16.39;72.53;101148.09;5102109;28;20024;-78
2023/05/10 08:07:21;;;;;;;0.25;0.25;;;;;;;16.40;72.74;101147.16;5101304;28;20059;-79
2023/05/10 08:09:47;;;;;;;0.10;0.10;;;;;;;16.47;72.39;101143.31;5103902;28;20066;-78
2023/05/10 08:12:13;;;;;;;0.10;0.10;;;;;;;16.45;72.38;101157.69;5105228;28;20024;-81
2023/05/10 08:14:40;;;;;;;0.10;0.10;;;;;;;16.55;72.18;101158.16;5091390;28;20033;-79
2023/05/10 08:17:06;;;;;;;1.15;0.43;;;;;;;16.55;72.49;101161.72;5096820;28;20747;-79
2023/05/10 08:19:32;;;;;;;0.65;0.55;;;;;;;16.56;72.33;101165.25;5097733;28;20114;-79
2023/05/10 08:21:58;;;;;;;0.10;0.10;;;;;;;16.51;71.90;101176.16;5097508;28;20062;-79
2023/05/10 08:24:24;;;;;;;0.15;0.15;;;;;;;16.53;72.60;101168.06;5090897;28;20028;-78
2023/05/10 08:26:51;;;;;;;0.10;0.10;;;;;;;16.56;72.58;101178.63;5098073;28;20027;-79
2023/05/10 08:29:17;;;;;;;0.20;0.20;;;;;;;16.62;72.91;101176.59;5094150;28;20033;-79
2023/05/10 08:31:43;;;;;;;0.10;0.10;;;;;;;16.69;72.49;101185.25;5098706;28;20039;-80
2023/05/10 08:34:12;;;;;;;0.10;0.10;;;;;;;16.76;72.18;101181.41;5099248;28;20024;-79
2023/05/10 08:36:38;;;;;;;0.10;0.10;;;;;;;16.80;72.27;101183.00;5100285;28;20028;-78
2023/05/10 08:39:04;;;;;;;0.50;0.50;;;;;;;16.84;72.30;101181.09;5100779;28;20478;-78
2023/05/10 08:41:33;;;;;;;0.10;0.10;;;;;;;16.85;71.73;101190.84;5107174;28;20039;-76
2023/05/10 08:44:03;;;;;;;0.10;0.10;;;;;;;16.88;72.33;101189.84;5101342;28;20032;-79
2023/05/10 08:46:30;;;;;;;1.00;0.95;;;;;;;16.90;72.09;101188.00;5093516;28;20499;-79
2023/05/10 08:49:01;;;;;;;0.10;0.10;;;;;;;16.95;72.18;101196.75;5099423;28;20028;-79
2023/05/10 08:51:31;;;;;;;0.32;0.32;;;;;;;16.97;71.98;101189.50;5099663;28;20044;-80
2023/05/10 08:53:58;;;;;;;0.17;0.17;;;;;;;17.02;71.82;101192.84;5103824;28;20085;-79
2023/05/10 08:56:24;;;;;;;0.10;0.10;;;;;;;17.08;71.99;101195.28;5106704;28;20068;-78
2023/05/10 08:58:51;;;;;;;0.10;0.10;;;;;;;17.11;72.04;101192.47;5102298;28;20028;-78
2023/05/10 09:01:18;;;;;;;0.20;0.20;;;;;;;17.15;71.85;101203.94;5106260;28;20035;-78
2023/05/10 09:03:45;;;;;;;0.10;0.10;;;;;;;17.17;71.56;101206.53;5100843;28;20401;-78
2023/05/10 09:06:15;;;;;;;0.10;0.10;;;;;;;17.16;70.94;101204.78;5095558;28;20093;-79
2023/05/10 09:08:43;;;;;;;0.47;0.47;;;;;;;17.16;71.52;101215.50;5098661;28;20034;-78
2023/05/10 09:11:10;;;;;;;0.10;0.10;;;;;;;17.12;70.84;101210.28;5100300;28;20035;-77
2023/05/10 09:13:36;;;;;;;0.10;0.10;;;;;;;17.08;70.88;101207.81;5103303;28;20020;-79
2023/05/10 09:16:04;;;;;;;0.10;0.10;;;;;;;17.07;71.30;101214.97;5103034;28;20096;-79
2023/05/10 09:18:30;;;;;;;0.10;0.10;;;;;;;17.05;71.70;101216.84;5095063;28;20020;-79
2023/05/10 09:20:56;;;;;;;0.08;0.08;;;;;;;17.02;71.10;101216.09;5098225;28;20027;-80
2023/05/10 09:23:23;;;;;;;0.10;0.10;;;;;;;17.02;71.32;101221.44;5097893;28;20036;-81
2023/05/10 09:26:04;;;;;;;0.13;0.13;;;;;;;17.06;71.14;101223.94;5101411;28;20087;-80
2023/05/10 09:28:49;;;;;;;0.10;0.10;;;;;;;17.03;71.45;101225.88;5096049;28;20016;-80
2023/05/10 09:31:15;;;;;;;0.20;0.20;;;;;;;17.01;71.84;101225.94;5110237;28;20027;-80
2023/05/10 09:33:50;;;;;;;0.10;0.10;;;;;;;17.05;71.65;101227.53;5105915;28;20028;-78
2023/05/10 09:36:16;;;;;;;0.10;0.10;;;;;;;17.02;71.61;101224.97;5110470;28;20028;-80
2023/05/10 09:38:52;;;;;;;0.10;0.10;;;;;;;17.12;71.18;101226.34;5102827;28;20024;-79
2023/05/10 09:41:21;;;;;;;0.10;0.10;;;;;;;17.20;71.27;101227.84;5107375;28;20114;-79
2023/05/10 09:43:48;;;;;;;1.85;0.75;;;;;;;17.33;71.23;101229.06;5094524;28;20028;-81
2023/05/10 09:46:15;;;;;;;0.20;0.20;;;;;;;17.49;71.47;101228.44;5092783;28;20016;-81
2023/05/10 09:48:46;;;;;;;2.30;0.95;;;;;;;17.66;70.88;101231.25;5092522;28;20431;-82
2023/05/10 09:51:20;;;;;;;0.10;0.10;;;;;;;17.84;70.84;101231.38;5098612;28;20072;-81
2023/05/10 09:53:46;;;;;;;0.10;0.10;;;;;;;17.95;70.53;101229.09;5105754;28;20032;-80
2023/05/10 09:56:12;;;;;;;0.10;0.10;;;;;;;18.05;70.44;101222.38;5096592;28;20024;-80
2023/05/10 09:58:39;;;;;;;0.20;0.20;;;;;;;18.12;71.07;101239.09;5088010;28;20512;-78
2023/05/10 10:01:10;;;;;;;0.10;0.10;;;;;;;18.12;70.23;101233.72;5090724;28;20024;-78
2023/05/10 10:03:43;;;;;;;0.10;0.10;;;;;;;18.14;70.09;101241.69;5096598;28;20028;-78
2023/05/10 10:06:09;;;;;;;0.10;0.10;;;;;;;18.10;70.01;101236.44;5104689;28;20024;-79
2023/05/10 10:08:35;;;;;;;0.30;0.30;;;;;;;18.09;70.14;101245.47;5108781;28;20525;-81
2023/05/10 10:11:02;;;;;;;0.10;0.10;;;;;;;18.05;69.43;101238.47;5107148;28;20094;-76
2023/05/10 10:13:28;;;;;;;0.10;0.10;;;;;;;18.07;69.15;101238.44;5106338;28;20028;-77
2023/05/10 10:15:55;;;;;;;0.20;0.20;;;;;;;18.10;69.04;101241.81;5112719;28;20028;-76
2023/05/10 10:18:26;;;;;;;0.10;0.10;;;;;;;18.18;69.79;101243.28;5107044;28;20511;-79
2023/05/10 10:20:54;;;;;;;0.10;0.10;;;;;;;18.22;70.00;101245.75;5103053;28;20027;-77
2023/05/10 10:23:20;;;;;;;0.10;0.10;;;;;;;18.22;69.61;101250.25;5101412;28;20027;-80
2023/05/10 10:25:48;;;;;;;0.22;0.22;;;;;;;18.24;68.77;101248.38;5098248;28;20040;-81
2023/05/10 10:28:24;;;;;;;0.10;0.10;;;;;;;18.30;69.10;101244.53;5098027;28;20053;-79
2023/05/10 10:30:52;;;;;;;0.10;0.10;;;;;;;18.24;69.11;101248.38;5088188;28;20043;-80
2023/05/10 10:33:50;;;;;;;0.55;0.35;;;;;;;18.22;68.52;101244.91;5095410;28;20035;-79
2023/05/10 10:36:16;;;;;;;0.45;0.45;;;;;;;18.03;68.66;101251.09;5106609;28;20045;-80
2023/05/10 10:39:00;;;;;;;0.30;0.30;;;;;;;17.95;68.97;101254.09;5094221;28;20035;-80
2023/05/10 10:41:33;;;;;;;0.45;0.45;;;;;;;17.82;68.96;101249.31;5097881;28;20024;-79
2023/05/10 10:47:24;;;;;;;0.60;0.60;;;;;;;17.80;69.38;101260.13;5113139;27;20385;-80
2023/05/10 10:52:43;;;;;;;0.20;0.20;;;;;;;17.83;69.44;101256.44;5053091;27;20139;-80
2023/05/10 10:55:13;;;;;;;;;;;;;;;18.01;69.13;101255.66;5050969;28;20045;-80
2023/05/10 11:05:40;;;;;;;0.10;0.10;;;;;;;18.37;69.60;101249.56;5098667;27;20391;-78
2023/05/10 11:08:19;;;;;;;0.15;0.15;;;;;;;18.56;69.06;101243.31;5097217;28;20043;-80
2023/05/10 11:16:24;;;;;;;0.10;0.10;;;;;;;18.50;68.37;101244.47;5053749;28;20444;-79
2023/05/10 11:19:09;;;;;;;0.57;0.38;;;;;;;18.37;67.60;101265.66;5043341;28;20064;-80
2023/05/10 11:21:53;;;;;;;0.10;0.10;;;;;;;18.15;67.23;101262.22;5036727;28;20060;-80
2023/05/10 11:24:26;;;;;;;0.10;0.10;;;;;;;17.90;67.44;101266.81;5035350;28;20026;-79
2023/05/10 11:26:54;;;;;;;1.05;1.05;;;;;;;17.73;68.20;101275.59;5033136;28;20033;-78
2023/05/10 11:29:20;;;;;;;0.40;0.40;;;;;;;17.60;68.24;101274.38;5026406;28;20034;-79
2023/05/10 11:31:47;;;;;;;0.10;0.10;;;;;;;17.46;68.66;101272.28;5033700;28;20021;-79
2023/05/10 11:34:33;;;;;;;0.10;0.10;;;;;;;17.40;68.48;101273.41;5035486;28;20102;-78
2023/05/10 11:37:00;;;;;;;1.27;1.10;;;;;;;17.23;68.89;101270.56;5031100;28;20029;-78
2023/05/10 11:39:29;;;;;;;0.10;0.10;;;;;;;17.12;69.12;101274.56;5035033;28;20014;-78
2023/05/10 11:41:57;;;;;;;0.40;0.40;;;;;;;17.09;69.50;101281.84;5027198;28;20487;-78
2023/05/10 11:44:24;;;;;;;0.32;0.32;;;;;;;17.03;69.35;101277.59;5033093;28;20112;-78
2023/05/10 11:46:51;;;;;;;0.10;0.10;;;;;;;17.00;69.72;101272.38;5035532;28;20028;-79
2023/05/10 11:49:18;;;;;;;0.20;0.20;;;;;;;17.00;69.72;101279.50;5022945;28;20029;-77
2023/05/10 11:51:44;;;;;;;0.10;0.10;;;;;;;16.94;69.72;101275.28;5035617;28;20034;-78
2023/05/10 11:54:11;;;;;;;0.20;0.20;;;;;;;16.98;69.61;101282.25;5032981;28;20045;-78
2023/05/10 11:56:39;;;;;;;0.10;0.10;;;;;;;16.97;69.58;101286.75;5036288;28;20029;-78
2023/05/10 11:59:05;;;;;;;0.10;0.10;;;;;;;16.97;69.54;101294.78;5036143;28;20052;-78
2023/05/10 12:01:32;;;;;;;0.15;0.15;;;;;;;16.97;69.09;101289.44;5033655;28;20025;-78